createdAt,value
2019-03-12T00:00:47.074Z,2.80
2019-03-12T00:02:44.059Z,2.80
2019-03-12T00:04:39.008Z,2.80
2019-03-12T00:06:33.804Z,2.80
2019-03-12T00:08:28.252Z,2.80
2019-03-12T00:10:22.395Z,2.80
2019-03-12T00:12:16.915Z,2.80
2019-03-12T00:14:11.367Z,2.80
2019-03-12T00:16:06.538Z,2.80
2019-03-12T00:18:00.451Z,2.80
2019-03-12T00:19:54.248Z,2.80
2019-03-12T00:21:49.253Z,2.80
2019-03-12T00:23:44.215Z,2.80
2019-03-12T00:25:38.176Z,2.80
2019-03-12T00:27:32.874Z,2.80
2019-03-12T00:29:26.734Z,2.70
2019-03-12T00:31:21.382Z,2.80
2019-03-12T00:33:16.122Z,2.70
2019-03-12T00:35:10.921Z,2.70
2019-03-12T00:37:05.795Z,2.80
2019-03-12T00:39:00.628Z,2.70
2019-03-12T00:40:56.263Z,2.80
2019-03-12T00:42:50.876Z,2.70
2019-03-12T00:44:45.963Z,2.70
2019-03-12T00:46:39.796Z,2.80
2019-03-12T00:48:34.729Z,2.80
2019-03-12T00:50:28.715Z,2.80
2019-03-12T00:52:23.686Z,2.80
2019-03-12T00:54:18.726Z,2.80
2019-03-12T00:56:13.215Z,2.80
2019-03-12T00:58:07.194Z,2.80
2019-03-12T01:00:01.882Z,2.80
2019-03-12T01:01:56.638Z,2.80
2019-03-12T01:03:51.327Z,2.80
2019-03-12T01:05:46.120Z,2.80
2019-03-12T01:07:41.184Z,2.80
2019-03-12T01:09:35.702Z,2.80
2019-03-12T01:11:30.467Z,2.80
2019-03-12T01:13:24.427Z,2.80
2019-03-12T01:15:19.163Z,2.70
2019-03-12T01:17:13.421Z,2.70
2019-03-12T01:19:08.706Z,2.70
2019-03-12T01:21:03.201Z,2.60
2019-03-12T01:22:57.323Z,2.60
2019-03-12T01:24:51.444Z,2.60
2019-03-12T01:26:46.519Z,2.60
2019-03-12T01:28:40.426Z,2.50
2019-03-12T01:30:35.830Z,2.50
2019-03-12T01:32:30.211Z,2.50
2019-03-12T01:34:25.178Z,2.50
2019-03-12T01:36:20.064Z,2.50
2019-03-12T01:38:14.954Z,2.50
2019-03-12T01:40:10.957Z,2.50
2019-03-12T01:42:04.863Z,2.50
2019-03-12T01:43:59.823Z,2.50
2019-03-12T01:45:54.642Z,2.50
2019-03-12T01:47:49.347Z,2.50
2019-03-12T01:49:43.896Z,2.50
2019-03-12T01:51:38.931Z,2.50
2019-03-12T01:53:33.590Z,2.50
2019-03-12T01:55:28.050Z,2.50
2019-03-12T01:57:22.751Z,2.50
2019-03-12T01:59:17.642Z,2.50
2019-03-12T02:01:12.623Z,2.50
2019-03-12T02:03:07.651Z,2.50
2019-03-12T02:05:02.671Z,2.50
2019-03-12T02:06:57.634Z,2.50
2019-03-12T02:08:52.228Z,2.50
2019-03-12T02:10:46.771Z,2.50
2019-03-12T02:12:40.540Z,2.50
2019-03-12T02:14:35.402Z,2.50
2019-03-12T02:16:29.639Z,2.50
2019-03-12T02:18:24.381Z,2.50
2019-03-12T02:20:19.503Z,2.50
2019-03-12T02:22:13.857Z,2.50
2019-03-12T02:24:08.031Z,2.50
2019-03-12T02:26:02.338Z,2.50
2019-03-12T02:27:57.311Z,2.50
2019-03-12T02:29:51.206Z,2.50
2019-03-12T02:31:45.404Z,2.50
2019-03-12T02:33:40.318Z,2.50
2019-03-12T02:35:35.283Z,2.50
2019-03-12T02:37:30.687Z,2.50
2019-03-12T02:39:25.439Z,2.50
2019-03-12T02:41:20.797Z,2.40
2019-03-12T02:43:15.547Z,2.40
2019-03-12T02:45:09.761Z,2.40
2019-03-12T02:47:05.094Z,2.30
2019-03-12T02:49:00.219Z,2.30
2019-03-12T02:50:54.388Z,2.20
2019-03-12T02:52:48.673Z,2.20
2019-03-12T02:54:43.624Z,2.20
2019-03-12T02:56:38.669Z,2.20
2019-03-12T02:58:33.434Z,2.10
2019-03-12T03:00:28.038Z,2.10
2019-03-12T03:02:22.015Z,2.10
2019-03-12T03:04:16.279Z,2.10
2019-03-12T03:06:19.567Z,2.20
2019-03-12T03:08:14.761Z,2.10
2019-03-12T03:10:11.167Z,2.10
2019-03-12T03:12:05.343Z,2.10
2019-03-12T03:13:59.559Z,2.10
2019-03-12T03:15:53.379Z,2.10
2019-03-12T03:17:49.453Z,2.20
2019-03-12T03:19:43.628Z,2.20
2019-03-12T03:21:37.815Z,2.20
2019-03-12T03:23:32.127Z,2.20
2019-03-12T03:25:26.958Z,2.20
2019-03-12T03:27:20.812Z,2.20
2019-03-12T03:29:14.870Z,2.20
2019-03-12T03:31:10.031Z,2.20
2019-03-12T03:33:05.071Z,2.20
2019-03-12T03:34:59.867Z,2.20
2019-03-12T03:36:55.609Z,2.20
2019-03-12T03:38:50.031Z,2.20
2019-03-12T03:40:44.966Z,2.20
2019-03-12T03:42:39.892Z,2.20
2019-03-12T03:44:34.762Z,2.20
2019-03-12T03:46:29.749Z,2.20
2019-03-12T03:48:24.408Z,2.20
2019-03-12T03:50:19.132Z,2.20
2019-03-12T03:52:13.816Z,2.20
2019-03-12T03:54:08.572Z,2.20
2019-03-12T03:56:03.145Z,2.20
2019-03-12T03:57:58.460Z,2.20
2019-03-12T03:59:53.164Z,2.20
2019-03-12T04:01:47.904Z,2.20
2019-03-12T04:03:43.681Z,2.20
2019-03-12T04:05:37.620Z,2.20
2019-03-12T04:07:32.416Z,2.20
2019-03-12T04:09:26.570Z,2.20
2019-03-12T04:11:21.393Z,2.20
2019-03-12T04:13:15.518Z,2.20
2019-03-12T04:15:11.127Z,2.20
2019-03-12T04:17:05.742Z,2.20
2019-03-12T04:19:00.004Z,2.20
2019-03-12T04:20:54.729Z,2.20
2019-03-12T04:22:49.375Z,2.20
2019-03-12T04:24:43.698Z,2.20
2019-03-12T04:26:38.587Z,2.20
2019-03-12T04:28:33.158Z,2.20
2019-03-12T04:30:28.023Z,2.30
2019-03-12T04:32:22.690Z,2.30
2019-03-12T04:34:33.271Z,2.30
2019-03-12T04:36:28.224Z,2.30
2019-03-12T04:38:23.308Z,2.30
2019-03-12T04:40:18.039Z,2.30
2019-03-12T04:42:13.286Z,2.40
2019-03-12T04:44:07.336Z,2.30
2019-03-12T04:46:02.050Z,2.40
2019-03-12T04:47:56.762Z,2.40
2019-03-12T04:49:50.684Z,2.40
2019-03-12T04:51:44.871Z,2.40
2019-03-12T04:53:38.999Z,2.40
2019-03-12T04:55:33.124Z,2.40
2019-03-12T04:57:27.663Z,2.40
2019-03-12T04:59:22.391Z,2.40
2019-03-12T05:01:17.288Z,2.40
2019-03-12T05:03:11.859Z,2.30
2019-03-12T05:05:06.939Z,2.40
2019-03-12T05:07:01.183Z,2.40
2019-03-12T05:08:56.113Z,2.30
2019-03-12T05:10:51.246Z,2.40
2019-03-12T05:12:46.091Z,2.40
2019-03-12T05:14:42.779Z,2.40
2019-03-12T05:16:36.791Z,2.40
2019-03-12T05:18:31.696Z,2.40
2019-03-12T05:20:26.276Z,2.40
2019-03-12T05:22:23.002Z,2.40
2019-03-12T05:24:17.817Z,2.40
2019-03-12T05:26:12.988Z,2.30
2019-03-12T05:28:07.561Z,2.40
2019-03-12T05:30:02.404Z,2.30
2019-03-12T05:31:56.505Z,2.40
2019-03-12T05:33:51.430Z,2.40
2019-03-12T05:35:45.863Z,2.40
2019-03-12T05:37:40.935Z,2.30
2019-03-12T05:39:35.606Z,2.30
2019-03-12T05:41:30.271Z,2.30
2019-03-12T05:43:24.807Z,2.30
2019-03-12T05:45:19.680Z,2.30
2019-03-12T05:47:14.271Z,2.40
2019-03-12T05:49:09.114Z,2.30
2019-03-12T05:51:03.773Z,2.40
2019-03-12T05:53:12.031Z,2.40
2019-03-12T05:55:07.312Z,2.40
2019-03-12T05:57:01.279Z,2.40
2019-03-12T05:58:56.189Z,2.40
2019-03-12T06:00:50.970Z,2.40
2019-03-12T06:02:45.960Z,2.50
2019-03-12T06:04:40.650Z,2.40
2019-03-12T06:06:35.266Z,2.50
2019-03-12T06:08:29.336Z,2.50
2019-03-12T06:10:24.004Z,2.50
2019-03-12T06:12:18.979Z,2.50
2019-03-12T06:14:13.644Z,2.50
2019-03-12T06:16:08.155Z,2.60
2019-03-12T06:18:02.835Z,2.70
2019-03-12T06:19:57.455Z,2.70
2019-03-12T06:21:52.143Z,2.70
2019-03-12T06:23:47.038Z,2.80
2019-03-12T06:25:41.086Z,2.80
2019-03-12T06:27:35.792Z,2.80
2019-03-12T06:29:30.175Z,2.90
2019-03-12T06:31:53.045Z,3.00
2019-03-12T06:33:52.025Z,3.00
2019-03-12T06:36:05.306Z,3.00
2019-03-12T06:38:08.550Z,3.00
2019-03-12T06:40:19.172Z,3.10
2019-03-12T06:42:18.422Z,3.10
2019-03-12T06:44:21.174Z,3.20
2019-03-12T06:46:47.076Z,3.30
2019-03-12T06:48:45.222Z,3.40
2019-03-12T06:51:17.051Z,3.50
2019-03-12T06:53:22.772Z,3.50
2019-03-12T06:55:45.396Z,3.60
2019-03-12T06:58:34.298Z,3.70
2019-03-12T07:00:50.913Z,3.70
2019-03-12T07:02:53.823Z,3.80
2019-03-12T07:05:16.815Z,4.00
2019-03-12T07:07:29.647Z,4.00
2019-03-12T07:09:49.577Z,4.10
2019-03-12T07:11:55.793Z,4.20
2019-03-12T07:14:00.078Z,4.30
2019-03-12T07:16:02.288Z,4.40
2019-03-12T07:18:18.555Z,4.50
2019-03-12T07:20:22.096Z,4.60
2019-03-12T07:22:25.643Z,4.70
2019-03-12T07:24:30.445Z,4.70
2019-03-12T07:26:47.264Z,4.70
2019-03-12T07:29:01.636Z,4.80
2019-03-12T07:31:15.417Z,4.70
2019-03-12T07:33:22.115Z,4.70
2019-03-12T07:35:27.066Z,4.80
2019-03-12T07:37:45.411Z,4.80
2019-03-12T07:40:02.143Z,4.90
2019-03-12T07:42:28.884Z,4.90
2019-03-12T07:44:42.915Z,5.00
2019-03-12T07:46:45.478Z,5.30
2019-03-12T07:49:02.543Z,5.40
2019-03-12T07:51:07.311Z,5.60
2019-03-12T07:53:10.855Z,5.50
2019-03-12T07:55:13.368Z,5.50
2019-03-12T07:57:17.659Z,5.50
2019-03-12T07:59:26.868Z,5.50
2019-03-12T08:01:39.016Z,5.50
2019-03-12T08:03:54.154Z,5.40
2019-03-12T08:06:07.591Z,5.40
2019-03-12T08:08:14.897Z,5.50
2019-03-12T08:10:26.870Z,5.60
2019-03-12T08:12:34.401Z,5.60
2019-03-12T08:14:50.279Z,5.60
2019-03-12T08:17:13.758Z,5.50
2019-03-12T08:19:29.975Z,5.60
2019-03-12T08:21:43.560Z,5.60
2019-03-12T08:23:49.491Z,5.70
2019-03-12T08:26:01.619Z,5.80
2019-03-12T08:28:12.800Z,5.90
2019-03-12T08:30:21.550Z,6.00
2019-03-12T08:32:38.131Z,6.00
2019-03-12T08:34:48.641Z,6.00
2019-03-12T08:36:56.740Z,6.00
2019-03-12T08:39:08.787Z,6.10
2019-03-12T08:41:19.742Z,6.20
2019-03-12T08:43:40.071Z,6.20
2019-03-12T08:46:09.310Z,6.30
2019-03-12T08:48:13.287Z,6.20
2019-03-12T08:50:16.804Z,6.20
2019-03-12T08:52:29.662Z,6.20
2019-03-12T08:54:53.514Z,6.10
2019-03-12T08:56:48.624Z,6.00
2019-03-12T08:58:54.044Z,6.00
2019-03-12T09:01:20.082Z,6.10
2019-03-12T09:03:36.086Z,6.30
2019-03-12T09:05:46.810Z,6.50
2019-03-12T09:08:04.634Z,6.60
2019-03-12T09:10:33.071Z,6.40
2019-03-12T09:12:56.459Z,6.50
2019-03-12T09:15:17.241Z,6.40
2019-03-12T09:17:23.630Z,6.40
2019-03-12T09:19:27.949Z,6.20
2019-03-12T09:21:39.951Z,5.90
2019-03-12T09:24:03.546Z,5.70
2019-03-12T09:26:05.269Z,5.60
2019-03-12T09:28:24.456Z,5.40
2019-03-12T09:30:30.198Z,5.40
2019-03-12T09:32:44.235Z,5.50
2019-03-12T09:34:57.224Z,5.90
2019-03-12T09:37:10.014Z,6.40
2019-03-12T09:39:11.992Z,7.00
2019-03-12T09:41:16.462Z,7.60
2019-03-12T09:43:28.766Z,8.10
2019-03-12T09:45:57.485Z,8.50
2019-03-12T09:48:02.030Z,8.60
2019-03-12T09:50:01.054Z,9.30
2019-03-12T09:52:09.524Z,9.50
2019-03-12T09:54:21.114Z,9.90
2019-03-12T09:56:43.644Z,10.10
2019-03-12T09:58:46.335Z,10.30
2019-03-12T10:00:57.049Z,10.60
2019-03-12T10:03:15.572Z,10.80
2019-03-12T10:05:25.883Z,11.20
2019-03-12T10:07:31.023Z,10.80
2019-03-12T10:09:34.149Z,10.40
2019-03-12T10:12:02.799Z,10.50
2019-03-12T10:14:35.128Z,10.40
2019-03-12T10:16:47.426Z,10.70
2019-03-12T10:19:00.279Z,10.90
2019-03-12T10:21:03.531Z,10.80
2019-03-12T10:23:19.915Z,10.60
2019-03-12T10:25:36.702Z,10.40
2019-03-12T10:27:53.068Z,10.60
2019-03-12T10:30:16.175Z,10.80
2019-03-12T10:32:19.102Z,11.00
2019-03-12T10:34:36.157Z,11.30
2019-03-12T10:36:40.588Z,11.20
2019-03-12T10:39:20.389Z,11.00
2019-03-12T10:41:29.887Z,11.20
2019-03-12T10:43:41.519Z,11.20
2019-03-12T10:45:41.946Z,11.00
2019-03-12T10:47:36.634Z,11.00
2019-03-12T10:49:37.496Z,11.10
2019-03-12T10:51:27.182Z,11.20
2019-03-12T10:53:22.121Z,11.30
2019-03-12T10:55:17.060Z,11.30
2019-03-12T10:57:12.120Z,11.00
2019-03-12T10:59:07.859Z,11.00
2019-03-12T11:01:02.533Z,10.90
2019-03-12T11:02:57.715Z,11.00
2019-03-12T11:04:52.714Z,11.00
2019-03-12T11:06:47.674Z,10.80
2019-03-12T11:08:41.981Z,11.10
2019-03-12T11:10:36.674Z,10.90
2019-03-12T11:12:31.601Z,11.00
2019-03-12T11:14:26.469Z,10.90
2019-03-12T11:16:21.147Z,11.00
2019-03-12T11:18:15.497Z,10.90
2019-03-12T11:20:11.643Z,10.80
2019-03-12T11:22:06.281Z,10.60
2019-03-12T11:24:01.183Z,10.00
2019-03-12T11:25:55.356Z,9.80
2019-03-12T11:27:49.714Z,9.60
2019-03-12T11:29:44.438Z,9.70
2019-03-12T11:31:38.921Z,9.60
2019-03-12T11:33:34.071Z,9.70
2019-03-12T11:35:38.276Z,9.80
2019-03-12T11:37:25.230Z,10.00
2019-03-12T11:39:20.419Z,10.10
2019-03-12T11:41:15.382Z,10.30
2019-03-12T11:43:10.421Z,10.50
2019-03-12T11:45:13.509Z,10.60
2019-03-12T11:47:01.264Z,10.50
2019-03-12T11:48:55.495Z,10.70
2019-03-12T11:50:50.450Z,11.00
2019-03-12T11:52:54.115Z,10.70
2019-03-12T11:54:41.978Z,10.90
2019-03-12T11:56:36.413Z,10.90
2019-03-12T11:58:31.236Z,10.60
2019-03-12T12:00:32.297Z,10.60
2019-03-12T12:02:27.786Z,10.70
2019-03-12T12:04:23.006Z,10.60
2019-03-12T12:06:17.976Z,10.50
2019-03-12T12:08:13.264Z,10.60
2019-03-12T12:10:09.753Z,10.70
2019-03-12T12:12:04.781Z,10.70
2019-03-12T12:13:59.706Z,10.70
2019-03-12T12:15:54.323Z,10.80
2019-03-12T12:17:49.652Z,10.90
2019-03-12T12:19:44.948Z,10.90
2019-03-12T12:21:38.967Z,10.80
2019-03-12T12:23:33.584Z,10.80
2019-03-12T12:25:27.946Z,10.90
2019-03-12T12:27:23.010Z,10.90
2019-03-12T12:29:17.517Z,11.00
2019-03-12T12:31:12.543Z,10.90
2019-03-12T12:33:07.283Z,11.10
2019-03-12T12:35:02.155Z,11.20
2019-03-12T12:36:57.798Z,11.00
2019-03-12T12:38:52.357Z,10.90
2019-03-12T12:40:46.451Z,11.00
2019-03-12T12:42:41.536Z,11.10
2019-03-12T12:44:35.353Z,11.10
2019-03-12T12:46:29.697Z,11.20
2019-03-12T12:48:26.061Z,11.40
2019-03-12T12:50:22.118Z,11.30
2019-03-12T12:52:16.723Z,11.30
2019-03-12T12:54:11.372Z,11.30
2019-03-12T12:56:06.119Z,11.10
2019-03-12T12:58:01.034Z,11.20
2019-03-12T12:59:57.113Z,11.20
2019-03-12T13:01:52.128Z,11.00
2019-03-12T13:03:46.967Z,11.20
2019-03-12T13:05:41.816Z,11.10
2019-03-12T13:07:35.892Z,11.10
2019-03-12T13:09:30.508Z,11.20
2019-03-12T13:11:25.250Z,11.10
2019-03-12T13:13:20.349Z,11.20
2019-03-12T13:15:15.344Z,11.10
2019-03-12T13:17:09.563Z,11.20
2019-03-12T13:19:04.214Z,11.10
2019-03-12T13:20:58.302Z,11.00
2019-03-12T13:22:53.761Z,11.10
2019-03-12T13:24:47.732Z,11.10
2019-03-12T13:26:42.691Z,11.10
2019-03-12T13:28:37.601Z,11.10
2019-03-12T13:30:32.123Z,11.30
2019-03-12T13:32:26.055Z,11.50
2019-03-12T13:34:20.442Z,11.50
2019-03-12T13:36:18.485Z,11.50
2019-03-12T13:38:12.659Z,11.40
2019-03-12T13:40:08.110Z,11.40
2019-03-12T13:42:02.670Z,11.10
2019-03-12T13:43:57.236Z,11.10
2019-03-12T13:45:51.845Z,11.10
2019-03-12T13:47:46.786Z,11.00
2019-03-12T13:49:40.953Z,11.00
2019-03-12T13:51:35.843Z,11.10
2019-03-12T13:53:29.795Z,11.00
2019-03-12T13:55:23.874Z,11.10
2019-03-12T13:57:18.151Z,11.10
2019-03-12T13:59:12.262Z,11.10
2019-03-12T14:01:06.483Z,11.20
2019-03-12T14:03:01.454Z,11.20
2019-03-12T14:04:56.604Z,11.20
2019-03-12T14:06:51.433Z,11.40
2019-03-12T14:08:46.168Z,11.40
2019-03-12T14:10:40.461Z,11.50
2019-03-12T14:12:35.402Z,11.60
2019-03-12T14:14:29.496Z,11.50
2019-03-12T14:16:23.931Z,11.60
2019-03-12T14:18:18.468Z,11.50
2019-03-12T14:20:39.003Z,11.40
2019-03-12T14:22:33.723Z,11.40
2019-03-12T14:24:28.360Z,11.30
2019-03-12T14:26:23.266Z,11.30
2019-03-12T14:28:17.273Z,11.40
2019-03-12T14:30:11.739Z,11.30
2019-03-12T14:32:06.690Z,11.40
2019-03-12T14:34:01.436Z,11.20
2019-03-12T14:35:56.310Z,11.00
2019-03-12T14:37:51.291Z,10.90
2019-03-12T14:39:45.878Z,11.00
2019-03-12T14:41:40.676Z,11.20
2019-03-12T14:43:35.479Z,11.20
2019-03-12T14:45:30.188Z,11.20
2019-03-12T14:47:25.203Z,11.00
2019-03-12T14:49:20.041Z,11.10
2019-03-12T14:51:27.501Z,11.10
2019-03-12T14:53:22.466Z,11.20
2019-03-12T14:55:17.766Z,11.10
2019-03-12T14:57:12.237Z,11.10
2019-03-12T14:59:07.210Z,11.40
2019-03-12T15:01:01.253Z,11.50
2019-03-12T15:02:56.216Z,11.40
2019-03-12T15:04:51.337Z,11.40
2019-03-12T15:06:45.267Z,11.30
2019-03-12T15:08:39.546Z,11.40
2019-03-12T15:10:35.395Z,12.00
2019-03-12T15:12:29.518Z,12.50
2019-03-12T15:14:24.131Z,12.90
2019-03-12T15:16:19.041Z,12.80
2019-03-12T15:18:14.182Z,12.70
2019-03-12T15:20:09.611Z,12.60
2019-03-12T15:22:03.529Z,12.20
2019-03-12T15:23:57.767Z,11.90
2019-03-12T15:25:52.199Z,11.70
2019-03-12T15:27:46.216Z,11.60
2019-03-12T15:29:41.174Z,11.50
2019-03-12T15:31:35.516Z,11.50
2019-03-12T15:33:30.417Z,11.20
2019-03-12T15:35:24.362Z,11.10
2019-03-12T15:37:18.425Z,10.80
2019-03-12T15:39:13.626Z,10.60
2019-03-12T15:41:09.270Z,10.50
2019-03-12T15:43:03.424Z,10.40
2019-03-12T15:44:58.482Z,10.30
2019-03-12T15:46:53.150Z,10.20
2019-03-12T15:48:47.907Z,10.10
2019-03-12T15:50:42.074Z,10.10
2019-03-12T15:52:36.564Z,10.10
2019-03-12T15:54:30.762Z,10.10
2019-03-12T15:56:25.763Z,10.00
2019-03-12T15:58:19.615Z,10.00
2019-03-12T16:00:13.918Z,10.10
2019-03-12T16:02:08.119Z,10.10
2019-03-12T16:04:03.258Z,10.10
2019-03-12T16:05:58.296Z,10.10
2019-03-12T16:07:53.019Z,10.10
2019-03-12T16:09:47.872Z,10.10
2019-03-12T16:11:43.893Z,10.00
2019-03-12T16:13:38.839Z,9.90
2019-03-12T16:15:33.451Z,9.80
2019-03-12T16:17:30.023Z,9.80
2019-03-12T16:19:24.875Z,9.80
2019-03-12T16:21:18.855Z,9.70
2019-03-12T16:23:14.024Z,9.60
2019-03-12T16:25:09.295Z,9.60
2019-03-12T16:27:03.971Z,9.50
2019-03-12T16:28:58.862Z,9.40
2019-03-12T16:30:52.937Z,9.30
2019-03-12T16:32:47.664Z,9.30
2019-03-12T16:34:41.598Z,9.20
2019-03-12T16:36:36.165Z,9.20
2019-03-12T16:38:30.835Z,9.10
2019-03-12T16:40:25.603Z,9.00
2019-03-12T16:42:20.152Z,9.00
2019-03-12T16:44:14.757Z,8.90
2019-03-12T16:46:08.995Z,8.90
2019-03-12T16:48:03.646Z,8.80
2019-03-12T16:49:58.661Z,8.80
2019-03-12T16:51:53.159Z,8.70
2019-03-12T16:53:47.851Z,8.70
2019-03-12T16:55:42.700Z,8.60
2019-03-12T16:57:37.359Z,8.60
2019-03-12T16:59:32.087Z,8.60
2019-03-12T17:01:26.755Z,8.60
2019-03-12T17:03:21.699Z,8.50
2019-03-12T17:05:16.720Z,8.50
2019-03-12T17:07:11.814Z,8.40
2019-03-12T17:09:06.925Z,8.30
2019-03-12T17:11:03.121Z,8.30
2019-03-12T17:12:58.186Z,8.20
2019-03-12T17:14:52.975Z,8.20
2019-03-12T17:16:48.591Z,8.10
2019-03-12T17:18:43.333Z,8.10
2019-03-12T17:20:38.320Z,8.00
2019-03-12T17:22:35.827Z,8.00
2019-03-12T17:24:29.583Z,8.00
2019-03-12T17:26:24.564Z,7.90
2019-03-12T17:28:19.226Z,7.90
2019-03-12T17:30:15.992Z,7.90
2019-03-12T17:32:11.001Z,7.90
2019-03-12T17:34:06.491Z,7.80
2019-03-12T17:36:00.492Z,7.70
2019-03-12T17:37:54.791Z,7.70
2019-03-12T17:39:49.643Z,7.60
2019-03-12T17:41:44.245Z,7.60
2019-03-12T17:43:39.087Z,7.50
2019-03-12T17:45:33.910Z,7.50
2019-03-12T17:47:28.576Z,7.50
2019-03-12T17:49:22.717Z,7.40
2019-03-12T17:53:10.132Z,7.30
2019-03-12T17:55:05.306Z,7.20
2019-03-12T17:56:59.343Z,7.20
2019-03-12T17:58:53.437Z,7.20
2019-03-12T18:00:48.058Z,7.10
2019-03-12T18:02:43.475Z,7.10
2019-03-12T18:04:37.972Z,7.00
2019-03-12T18:06:34.948Z,6.90
2019-03-12T18:08:27.978Z,6.90
2019-03-12T18:10:22.668Z,6.80
2019-03-12T18:12:17.479Z,6.80
2019-03-12T18:14:12.174Z,6.70
2019-03-12T18:16:06.979Z,6.60
2019-03-12T18:18:02.787Z,6.60
2019-03-12T18:19:57.686Z,6.60
2019-03-12T18:21:51.869Z,6.50
2019-03-12T18:23:46.653Z,6.50
2019-03-12T18:25:41.535Z,6.40
2019-03-12T18:27:36.169Z,6.40
2019-03-12T18:29:31.190Z,6.40
2019-03-12T18:31:25.699Z,6.40
2019-03-12T18:33:20.433Z,6.30
2019-03-12T18:35:15.497Z,6.30
2019-03-12T18:37:10.069Z,6.40
2019-03-12T18:39:06.006Z,6.40
2019-03-12T18:41:01.517Z,6.40
2019-03-12T18:42:55.827Z,6.40
2019-03-12T18:44:50.556Z,6.40
2019-03-12T18:46:44.768Z,6.50
2019-03-12T18:48:39.366Z,6.60
2019-03-12T18:50:34.352Z,6.60
2019-03-12T18:52:29.209Z,6.60
2019-03-12T18:54:23.940Z,6.60
2019-03-12T18:56:18.836Z,6.60
2019-03-12T18:58:13.042Z,6.60
2019-03-12T19:00:12.481Z,6.70
2019-03-12T19:02:07.585Z,6.70
2019-03-12T19:04:02.848Z,6.70
2019-03-12T19:05:57.924Z,6.70
2019-03-12T19:07:52.421Z,6.70
2019-03-12T19:09:46.355Z,6.60
2019-03-12T19:11:41.863Z,6.60
2019-03-12T19:13:37.921Z,6.50
2019-03-12T19:15:32.126Z,6.50
2019-03-12T19:17:26.094Z,6.50
2019-03-12T19:19:21.044Z,6.40
2019-03-12T19:21:15.836Z,6.40
2019-03-12T19:23:10.910Z,6.40
2019-03-12T19:25:05.816Z,6.40
2019-03-12T19:27:00.274Z,6.40
2019-03-12T19:28:54.504Z,6.40
2019-03-12T19:30:49.555Z,6.30
2019-03-12T19:32:55.092Z,6.30
2019-03-12T19:34:49.939Z,6.20
2019-03-12T19:36:44.098Z,6.10
2019-03-12T19:38:38.023Z,6.00
2019-03-12T19:40:32.906Z,6.00
2019-03-12T19:42:26.983Z,5.90
2019-03-12T19:44:22.033Z,5.90
2019-03-12T19:46:17.143Z,5.80
2019-03-12T19:48:11.943Z,5.80
2019-03-12T19:50:08.170Z,5.80
2019-03-12T19:52:02.962Z,5.70
2019-03-12T19:53:58.043Z,5.70
2019-03-12T19:55:52.748Z,5.70
2019-03-12T19:57:47.460Z,5.70
2019-03-12T19:59:42.329Z,5.70
2019-03-12T20:01:37.672Z,5.80
2019-03-12T20:03:32.785Z,5.80
2019-03-12T20:05:27.033Z,5.80
2019-03-12T20:07:21.992Z,5.80
2019-03-12T20:09:28.977Z,5.80
2019-03-12T20:11:59.967Z,5.80
2019-03-12T20:14:44.777Z,5.70
2019-03-12T20:17:15.643Z,5.80
2019-03-12T20:19:46.202Z,5.80
2019-03-12T20:22:18.043Z,5.80
2019-03-12T20:24:55.655Z,5.80
2019-03-12T20:27:40.143Z,5.80
2019-03-12T20:30:28.359Z,5.70
2019-03-12T20:33:01.995Z,5.70
2019-03-12T20:35:33.464Z,5.60
2019-03-12T20:38:23.876Z,5.50
2019-03-12T20:41:05.897Z,5.50
2019-03-12T20:44:04.885Z,5.50
2019-03-12T20:46:53.831Z,5.50
2019-03-12T20:49:16.966Z,5.50
2019-03-12T20:51:47.863Z,5.50
2019-03-12T20:54:34.504Z,5.40
2019-03-12T20:57:21.380Z,5.40
2019-03-12T21:00:05.067Z,5.40
2019-03-12T21:02:34.675Z,5.30
2019-03-12T21:04:55.744Z,5.30
2019-03-12T21:07:21.569Z,5.30
2019-03-12T21:09:56.653Z,5.20
2019-03-12T21:12:27.825Z,5.20
2019-03-12T21:15:04.392Z,5.10
2019-03-12T21:17:39.255Z,5.10
2019-03-12T21:20:10.756Z,5.00
2019-03-12T21:22:25.126Z,5.00
2019-03-12T21:24:33.382Z,5.10
2019-03-12T21:26:54.014Z,5.10
2019-03-12T21:29:25.655Z,5.20
2019-03-12T21:31:20.332Z,5.20
2019-03-12T21:33:15.894Z,5.30
2019-03-12T21:35:10.506Z,5.30
2019-03-12T21:37:05.194Z,5.40
2019-03-12T21:38:59.777Z,5.40
2019-03-12T21:40:54.369Z,5.30
2019-03-12T21:42:48.669Z,5.30
2019-03-12T21:44:43.238Z,5.30
2019-03-12T21:46:37.650Z,5.30
2019-03-12T21:48:32.395Z,5.30
2019-03-12T21:50:26.587Z,5.30
2019-03-12T21:52:21.283Z,5.40
2019-03-12T21:54:16.059Z,5.50
2019-03-12T21:56:10.919Z,5.50
2019-03-12T21:58:06.231Z,5.60
2019-03-12T22:00:00.441Z,5.60
2019-03-12T22:01:55.327Z,5.70
2019-03-12T22:03:49.587Z,5.70
2019-03-12T22:05:43.691Z,5.70
2019-03-12T22:07:38.579Z,5.80
2019-03-12T22:09:33.620Z,5.80
2019-03-12T22:11:27.862Z,5.80
2019-03-12T22:13:22.542Z,5.90
2019-03-12T22:15:16.721Z,5.90
2019-03-12T22:17:11.459Z,6.00
2019-03-12T22:19:06.397Z,6.00
2019-03-12T22:21:01.128Z,6.00
2019-03-12T22:23:07.008Z,6.10
2019-03-12T22:25:01.778Z,6.10
2019-03-12T22:26:56.894Z,6.10
2019-03-12T22:28:51.303Z,6.10
2019-03-12T22:30:45.684Z,6.20
2019-03-12T22:32:39.831Z,6.20
2019-03-12T22:34:34.367Z,6.20
2019-03-12T22:36:28.175Z,6.20
2019-03-12T22:38:22.969Z,6.20
2019-03-12T22:40:17.986Z,6.30
2019-03-12T22:42:12.995Z,6.30
2019-03-12T22:44:13.864Z,6.30
2019-03-12T22:46:08.035Z,6.30
2019-03-12T22:48:02.808Z,6.30
2019-03-12T22:49:56.952Z,6.40
2019-03-12T22:51:51.155Z,6.40
2019-03-12T22:53:45.807Z,6.40
2019-03-12T22:55:40.512Z,6.40
2019-03-12T22:57:34.412Z,6.40
2019-03-12T22:59:47.201Z,6.40
2019-03-12T23:01:59.756Z,6.40
2019-03-12T23:04:12.382Z,6.50
2019-03-12T23:06:24.611Z,6.40
2019-03-12T23:08:37.721Z,6.40
2019-03-12T23:10:33.590Z,6.40
2019-03-12T23:12:27.779Z,6.40
2019-03-12T23:14:23.501Z,6.40
2019-03-12T23:16:17.779Z,6.40
2019-03-12T23:18:12.859Z,6.40
2019-03-12T23:20:09.436Z,6.40
2019-03-12T23:22:10.682Z,6.40
2019-03-12T23:24:04.922Z,6.40
2019-03-12T23:26:00.006Z,6.40
2019-03-12T23:27:55.584Z,6.30
2019-03-12T23:29:49.657Z,6.40
2019-03-12T23:31:44.204Z,6.40
2019-03-12T23:33:38.620Z,6.40
2019-03-12T23:35:33.543Z,6.40
2019-03-12T23:37:28.150Z,6.40
2019-03-12T23:39:22.562Z,6.40
2019-03-12T23:41:16.818Z,6.40
2019-03-12T23:43:11.822Z,6.40
2019-03-12T23:45:07.397Z,6.40
2019-03-12T23:47:01.157Z,6.40
2019-03-12T23:48:55.955Z,6.30
2019-03-12T23:50:51.451Z,6.40
2019-03-12T23:52:46.612Z,6.40
2019-03-12T23:54:41.651Z,6.40
2019-03-12T23:56:36.772Z,6.40
2019-03-12T23:58:31.913Z,6.40
